Time;durP1;ratioP1;P1;durP2;ratioP2;P2;SDS_P1;SDS_P2;PMS_P1;PMS_P2;Temp;Humidity;BMP_temperature;BMP_pressure;BME280_temperature;BME280_humidity;BME280_pressure;Samples;Min_cycle;Max_cycle;Signal;HPM_P1;HPM_P2
2022/09/03 00:00:09;;;;;;;6.85;6.13;;;;;;;12.74;65.40;100835.94;4926341;29;20410;-77
2022/09/03 00:02:44;;;;;;;8.13;6.30;;;;;;;12.83;65.04;100839.34;4946650;29;20035;-77
2022/09/03 00:05:17;;;;;;;6.25;5.75;;;;;;;12.91;64.46;100831.34;4948947;29;20036;-76
2022/09/03 00:07:55;;;;;;;6.78;6.18;;;;;;;13.00;64.46;100836.53;4929057;29;20068;-77
2022/09/03 00:10:29;;;;;;;8.20;5.88;;;;;;;13.02;64.43;100824.16;4931473;29;20035;-77
2022/09/03 00:13:00;;;;;;;6.32;5.72;;;;;;;13.02;64.58;100829.47;4934137;29;20554;-77
2022/09/03 00:15:27;;;;;;;6.82;6.32;;;;;;;12.97;65.16;100823.34;4930486;29;20407;-77
2022/09/03 00:18:06;;;;;;;6.80;6.22;;;;;;;13.01;65.76;100818.88;4931037;29;20043;-77
2022/09/03 00:20:41;;;;;;;7.25;6.55;;;;;;;12.95;65.68;100817.16;4932885;29;20098;-77
2022/09/03 00:23:11;;;;;;;8.75;6.47;;;;;;;12.98;65.14;100821.56;4928476;29;20046;-77
2022/09/03 00:25:51;;;;;;;6.35;5.85;;;;;;;12.98;65.51;100824.22;4927692;29;20091;-76
2022/09/03 00:28:28;;;;;;;6.45;5.75;;;;;;;12.92;65.17;100822.50;4930740;29;20469;-76
2022/09/03 00:31:11;;;;;;;6.63;6.03;;;;;;;12.83;65.12;100814.66;4929844;29;20040;-76
2022/09/03 00:33:40;;;;;;;6.47;5.88;;;;;;;12.75;64.89;100816.50;4927243;29;20040;-76
2022/09/03 00:36:29;;;;;;;6.45;5.95;;;;;;;12.64;65.90;100817.50;4924660;29;20039;-76
2022/09/03 00:38:57;;;;;;;7.00;6.40;;;;;;;12.56;65.81;100808.75;4924563;29;20043;-76
2022/09/03 00:41:43;;;;;;;7.15;6.60;;;;;;;12.54;65.95;100809.66;4926832;29;20050;-76
2022/09/03 00:44:31;;;;;;;6.68;6.18;;;;;;;12.48;66.09;100806.19;4924948;29;20131;-76
2022/09/03 00:47:14;;;;;;;6.95;6.40;;;;;;;12.43;66.73;100799.19;4924168;29;20047;-76
2022/09/03 00:50:08;;;;;;;6.28;5.75;;;;;;;12.38;67.16;100814.22;4924391;29;20044;-76
2022/09/03 00:52:56;;;;;;;11.32;6.32;;;;;;;12.27;67.13;100796.66;4927568;29;20044;-76
2022/09/03 00:56:01;;;;;;;10.18;6.72;;;;;;;12.20;67.84;100794.09;4924283;29;20449;-76
2022/09/03 00:58:38;;;;;;;7.47;6.55;;;;;;;12.12;67.98;100798.56;4925864;29;20111;-76
2022/09/03 01:01:13;;;;;;;7.38;6.55;;;;;;;12.05;68.35;100800.38;4924339;29;20047;-76
2022/09/03 01:04:20;;;;;;;6.80;6.22;;;;;;;11.96;69.35;100789.88;4925337;29;20046;-76
2022/09/03 01:07:24;;;;;;;7.25;6.65;;;;;;;11.88;68.62;100797.00;4939580;29;20079;-76
2022/09/03 01:10:10;;;;;;;9.73;6.50;;;;;;;11.78;69.13;100797.00;4889681;29;20071;-77
2022/09/03 01:12:57;;;;;;;6.70;6.03;;;;;;;11.73;69.40;100793.50;4885895;29;20507;-76
2022/09/03 01:15:22;;;;;;;7.00;6.32;;;;;;;11.68;69.77;100797.94;4917408;29;20188;-77
2022/09/03 01:18:03;;;;;;;7.40;6.72;;;;;;;11.62;70.52;100798.00;4924966;29;20119;-77
2022/09/03 01:20:51;;;;;;;7.83;7.13;;;;;;;11.57;70.68;100791.88;4926068;29;20035;-77
2022/09/03 01:23:36;;;;;;;6.97;6.47;;;;;;;11.54;71.13;100797.19;4924620;29;20036;-76
2022/09/03 01:26:38;;;;;;;7.53;6.88;;;;;;;11.49;71.62;100798.97;4924260;29;20071;-77
2022/09/03 01:29:22;;;;;;;;;;;;;;;11.44;71.77;100798.97;4926109;29;20086;-77
2022/09/03 01:32:04;;;;;;;7.47;6.93;;;;;;;11.38;70.81;100799.91;4924765;29;19915;-77
2022/09/03 01:34:49;;;;;;;8.35;7.50;;;;;;;11.33;71.53;100796.41;4926670;29;20047;-76
2022/09/03 01:37:27;;;;;;;8.10;6.72;;;;;;;11.28;71.41;100794.66;4923141;29;20127;-76
2022/09/03 01:40:21;;;;;;;6.18;5.68;;;;;;;11.24;72.08;100801.75;4925604;29;20051;-76
2022/09/03 01:43:05;;;;;;;8.52;6.57;;;;;;;11.20;72.33;100800.00;4928920;29;20067;-77
2022/09/03 01:45:50;;;;;;;7.95;7.35;;;;;;;11.15;72.12;100797.34;4929177;29;20036;-76
2022/09/03 01:48:31;;;;;;;7.30;6.68;;;;;;;11.11;72.17;100797.41;4924754;29;20123;-77
2022/09/03 01:51:07;;;;;;;7.88;7.18;;;;;;;11.06;72.60;100805.34;4926561;29;20067;-77
2022/09/03 01:53:57;;;;;;;7.57;6.88;;;;;;;11.01;72.56;100801.84;4925591;29;20570;-76
2022/09/03 01:56:48;;;;;;;7.88;7.28;;;;;;;10.99;73.73;100810.66;4940087;28;20487;-77
2022/09/03 01:59:28;;;;;;;7.63;7.13;;;;;;;10.94;73.26;100800.97;4925089;29;20047;-77
2022/09/03 02:02:05;;;;;;;10.27;6.88;;;;;;;10.91;74.23;100808.03;4924344;29;20048;-77
2022/09/03 02:04:30;;;;;;;6.90;6.40;;;;;;;10.86;73.95;100815.09;4923153;29;20492;-77
2022/09/03 02:06:59;;;;;;;7.22;6.60;;;;;;;10.77;75.48;100813.34;4928373;29;20038;-77
2022/09/03 02:09:24;;;;;;;6.85;6.35;;;;;;;10.69;75.83;100815.13;4924977;29;20138;-77
2022/09/03 02:11:59;;;;;;;7.13;6.18;;;;;;;10.60;76.33;100809.84;4924828;29;20543;-77
2022/09/03 02:14:26;;;;;;;7.05;6.53;;;;;;;10.56;75.57;100810.72;4923143;29;20103;-76
2022/09/03 02:16:53;;;;;;;6.95;6.35;;;;;;;10.51;76.07;100803.72;4925371;29;20050;-76
2022/09/03 02:19:18;;;;;;;6.75;6.25;;;;;;;10.48;76.39;100801.09;4924291;29;20034;-76
2022/09/03 02:21:50;;;;;;;7.13;6.53;;;;;;;10.47;76.25;100804.59;4928049;29;20086;-76
2022/09/03 02:24:16;;;;;;;9.07;7.18;;;;;;;10.45;76.56;100801.09;4926737;29;20048;-76
2022/09/03 02:26:41;;;;;;;7.55;6.47;;;;;;;10.43;76.45;100799.34;4925827;29;20042;-77
2022/09/03 02:29:07;;;;;;;7.70;6.30;;;;;;;10.41;76.66;100801.97;4923665;29;20040;-77
2022/09/03 02:31:32;;;;;;;7.45;6.75;;;;;;;10.37;76.89;100808.13;4924417;29;20495;-77
2022/09/03 02:33:57;;;;;;;14.60;7.05;;;;;;;10.29;77.06;100810.75;4924952;29;20052;-77
2022/09/03 02:36:31;;;;;;;6.95;6.35;;;;;;;10.23;78.13;100800.19;4923469;29;20068;-77
2022/09/03 02:38:57;;;;;;;9.48;6.68;;;;;;;10.17;77.77;100804.59;4927051;29;20031;-76
2022/09/03 02:41:26;;;;;;;6.90;6.30;;;;;;;10.11;77.69;100800.19;4923776;29;20518;-77
2022/09/03 02:44:16;;;;;;;6.07;5.57;;;;;;;10.07;78.79;100801.06;4922662;29;20555;-77
2022/09/03 02:46:53;;;;;;;6.68;6.10;;;;;;;9.97;79.03;100792.28;4925170;29;20039;-77
2022/09/03 02:49:19;;;;;;;6.68;6.00;;;;;;;9.95;79.05;100799.28;4923386;29;20127;-77
2022/09/03 02:51:44;;;;;;;6.20;5.65;;;;;;;9.92;79.13;100796.66;4926133;29;20077;-77
2022/09/03 02:54:11;;;;;;;6.43;5.82;;;;;;;9.92;79.34;100799.31;4928994;29;20489;-77
2022/09/03 02:56:37;;;;;;;5.97;5.38;;;;;;;9.87;79.85;100801.06;4923450;29;20131;-77
2022/09/03 02:59:04;;;;;;;6.90;6.00;;;;;;;9.74;80.74;100810.69;4925666;29;20047;-76
2022/09/03 03:01:30;;;;;;;6.22;5.70;;;;;;;9.59;82.98;100801.03;4925381;29;20042;-77
2022/09/03 03:03:55;;;;;;;6.88;5.53;;;;;;;9.54;82.64;100801.91;4926514;29;20043;-76
2022/09/03 03:06:20;;;;;;;8.75;6.00;;;;;;;9.57;82.39;100812.44;4924483;29;20043;-76
2022/09/03 03:08:49;;;;;;;6.25;5.25;;;;;;;9.58;82.62;100809.78;4929667;29;20036;-76
2022/09/03 03:11:18;;;;;;;7.43;5.60;;;;;;;9.59;81.91;100808.94;4928335;29;20429;-77
2022/09/03 03:13:45;;;;;;;6.10;5.50;;;;;;;9.60;82.95;100805.41;4933388;29;20035;-77
2022/09/03 03:16:11;;;;;;;5.80;5.13;;;;;;;9.67;82.88;100806.31;4929733;29;20046;-76
2022/09/03 03:18:38;;;;;;;6.00;5.50;;;;;;;9.77;82.56;100810.72;4927374;29;20043;-76
2022/09/03 03:21:11;;;;;;;5.60;5.10;;;;;;;9.86;82.91;100799.31;4929192;29;20131;-77
2022/09/03 03:23:37;;;;;;;5.70;5.20;;;;;;;9.91;82.42;100801.97;4925833;29;20061;-77
2022/09/03 03:26:05;;;;;;;5.70;5.30;;;;;;;9.87;82.53;100801.06;4930153;29;20040;-77
2022/09/03 03:28:32;;;;;;;5.75;5.25;;;;;;;9.79;83.95;100794.91;4927344;29;20036;-77
2022/09/03 03:31:03;;;;;;;8.13;5.40;;;;;;;9.77;83.71;100794.91;4928550;29;20050;-77
2022/09/03 03:33:29;;;;;;;6.25;5.45;;;;;;;9.81;82.57;100799.28;4926040;29;20095;-76
2022/09/03 03:35:54;;;;;;;6.07;5.43;;;;;;;9.74;82.58;100797.53;4927995;29;20035;-76
2022/09/03 03:38:19;;;;;;;7.43;5.20;;;;;;;9.64;82.00;100799.28;4931606;29;20044;-76
2022/09/03 03:40:45;;;;;;;5.85;5.30;;;;;;;9.52;82.58;100804.50;4933738;29;20036;-76
2022/09/03 03:43:11;;;;;;;5.55;5.00;;;;;;;9.47;82.89;100808.88;4931326;29;20054;-76
2022/09/03 03:45:36;;;;;;;5.63;4.53;;;;;;;9.45;82.90;100800.09;4933740;29;20044;-76
2022/09/03 03:48:01;;;;;;;7.43;5.05;;;;;;;9.42;82.89;100813.25;4931360;29;20036;-76
2022/09/03 03:50:27;;;;;;;7.13;5.40;;;;;;;9.31;81.90;100809.72;4931310;29;20042;-75
2022/09/03 03:52:52;;;;;;;9.18;5.20;;;;;;;9.19;82.53;100816.69;4933831;29;20495;-76
2022/09/03 03:55:17;;;;;;;5.40;4.90;;;;;;;9.14;83.62;100814.91;4931528;29;20040;-76
2022/09/03 03:57:43;;;;;;;8.57;5.55;;;;;;;9.05;83.77;100818.41;4928164;29;20042;-76
2022/09/03 04:00:11;;;;;;;5.95;5.45;;;;;;;8.98;84.83;100811.31;4928938;29;20039;-76
2022/09/03 04:02:42;;;;;;;6.25;5.45;;;;;;;8.96;84.81;100806.06;4925916;29;20094;-76
2022/09/03 04:05:08;;;;;;;5.47;5.05;;;;;;;8.88;83.77;100813.06;4927137;29;20039;-76
2022/09/03 04:07:33;;;;;;;7.22;5.57;;;;;;;8.82;85.13;100812.13;4927104;29;20082;-76
2022/09/03 04:09:58;;;;;;;6.30;5.78;;;;;;;8.79;86.57;100810.34;4925865;29;20043;-76
2022/09/03 04:12:26;;;;;;;7.03;6.32;;;;;;;8.83;87.23;100808.63;4927926;29;20035;-75
2022/09/03 04:14:51;;;;;;;6.43;5.82;;;;;;;8.84;87.03;100798.09;4928596;29;20040;-76
2022/09/03 04:17:16;;;;;;;7.15;6.47;;;;;;;8.88;87.08;100809.53;4927398;29;20036;-76
2022/09/03 04:19:42;;;;;;;7.43;6.72;;;;;;;8.93;86.69;100802.53;4926184;29;20459;-76
2022/09/03 04:22:07;;;;;;;10.02;6.30;;;;;;;8.98;86.03;100793.78;4927223;29;20036;-76
2022/09/03 04:24:32;;;;;;;6.75;6.00;;;;;;;9.04;85.89;100799.94;4930660;29;20039;-76
2022/09/03 04:26:58;;;;;;;6.75;5.55;;;;;;;9.00;85.95;100796.44;4925327;29;20032;-76
2022/09/03 04:29:24;;;;;;;5.88;5.38;;;;;;;8.93;85.94;100798.16;4927944;29;20587;-76
2022/09/03 04:34:33;;;;;;;6.32;5.72;;;;;;;8.85;86.98;100806.88;4925219;29;20047;-77
2022/09/03 04:36:59;;;;;;;6.07;5.47;;;;;;;8.86;87.36;100809.53;4931046;29;20039;-76
2022/09/03 04:39:24;;;;;;;6.07;5.00;;;;;;;8.80;88.43;100812.09;4925398;29;20047;-76
2022/09/03 04:41:50;;;;;;;6.93;6.22;;;;;;;8.81;88.68;100808.63;4926173;29;20039;-76
2022/09/03 04:44:15;;;;;;;6.47;5.88;;;;;;;8.86;88.84;100806.03;4926443;29;20503;-76
2022/09/03 04:46:40;;;;;;;5.47;4.97;;;;;;;8.92;88.42;100812.19;4928281;29;20071;-76
2022/09/03 04:49:08;;;;;;;6.13;5.28;;;;;;;8.95;87.57;100801.66;4948549;29;20453;-75
2022/09/03 04:51:37;;;;;;;5.88;5.30;;;;;;;8.98;87.36;100808.69;4925483;29;20044;-76
2022/09/03 04:54:02;;;;;;;7.65;6.32;;;;;;;9.02;86.34;100797.31;4932090;29;20054;-76
2022/09/03 04:56:33;;;;;;;6.82;5.60;;;;;;;9.08;86.52;100797.34;4932576;29;20036;-76
2022/09/03 04:59:02;;;;;;;5.93;5.38;;;;;;;9.14;86.86;100802.66;4924607;29;20040;-75
2022/09/03 05:01:30;;;;;;;7.68;5.68;;;;;;;9.21;86.21;100804.41;4928190;29;20101;-75
2022/09/03 05:03:56;;;;;;;6.30;5.75;;;;;;;9.29;86.07;100807.06;4924507;29;20509;-75
2022/09/03 05:06:24;;;;;;;5.93;5.43;;;;;;;9.40;85.81;100812.38;4924955;29;20122;-76
2022/09/03 05:08:51;;;;;;;6.70;6.15;;;;;;;9.47;85.70;100816.78;4926894;29;20091;-76
2022/09/03 05:11:17;;;;;;;6.85;5.53;;;;;;;9.55;85.74;100815.06;4923685;29;20075;-76
2022/09/03 05:13:47;;;;;;;6.70;5.97;;;;;;;9.62;86.07;100810.69;4926511;29;20047;-76
2022/09/03 05:16:12;;;;;;;6.32;5.68;;;;;;;9.66;86.28;100813.31;4925693;29;20551;-76
2022/09/03 05:18:38;;;;;;;9.45;5.93;;;;;;;9.74;86.04;100820.38;4924532;29;20044;-75
2022/09/03 05:21:06;;;;;;;7.15;6.00;;;;;;;9.80;85.57;100817.75;4930128;29;20071;-76
2022/09/03 05:23:38;;;;;;;8.73;6.18;;;;;;;9.87;86.52;100816.88;4924148;29;20458;-75
2022/09/03 05:26:07;;;;;;;;;;;;;;;9.96;87.69;100816.91;4927581;29;20094;-76
2022/09/03 05:28:35;;;;;;;8.48;5.70;;;;;;;10.07;86.16;100809.00;4929972;29;19921;-76
2022/09/03 05:31:02;;;;;;;6.10;5.60;;;;;;;10.17;85.86;100804.59;4923703;29;20051;-75
2022/09/03 05:33:28;;;;;;;9.05;6.30;;;;;;;10.28;86.31;100802.88;4926116;29;20057;-77
2022/09/03 05:35:59;;;;;;;6.38;5.78;;;;;;;10.37;85.72;100800.19;4924900;29;20793;-76
2022/09/03 05:38:24;;;;;;;6.50;5.47;;;;;;;10.45;85.85;100801.09;4923920;29;20040;-76
2022/09/03 05:40:50;;;;;;;6.63;6.07;;;;;;;10.57;85.85;100800.19;4926667;29;20414;-75
2022/09/03 05:43:16;;;;;;;9.57;6.15;;;;;;;10.65;85.52;100802.81;4923702;29;20036;-78
2022/09/03 05:45:41;;;;;;;9.80;6.03;;;;;;;10.72;85.04;100802.81;4927292;29;20051;-78
2022/09/03 05:48:06;;;;;;;8.77;5.50;;;;;;;10.78;85.29;100806.31;4925379;29;20036;-78
2022/09/03 05:50:32;;;;;;;11.32;5.30;;;;;;;10.84;85.54;100804.50;4928199;29;20044;-78
2022/09/03 05:52:58;;;;;;;14.82;5.57;;;;;;;10.91;85.20;100800.97;4924220;29;20067;-76
2022/09/03 05:55:23;;;;;;;6.93;6.22;;;;;;;11.02;85.48;100813.28;4928282;29;20036;-75
2022/09/03 05:57:51;;;;;;;6.63;5.93;;;;;;;11.15;85.95;100813.22;4926962;29;20035;-74
2022/09/03 06:00:18;;;;;;;10.93;6.32;;;;;;;11.32;85.72;100809.63;4930057;29;20042;-76
2022/09/03 06:02:49;;;;;;;6.82;5.97;;;;;;;11.57;85.58;100807.72;4931063;29;20031;-75
2022/09/03 06:05:15;;;;;;;11.38;6.30;;;;;;;11.85;85.10;100811.09;4925174;29;20036;-75
2022/09/03 06:07:41;;;;;;;8.13;6.28;;;;;;;12.14;84.05;100808.25;4922961;29;20024;-76
2022/09/03 06:10:06;;;;;;;9.23;6.43;;;;;;;12.45;83.23;100814.16;4926051;29;20403;-75
2022/09/03 06:12:32;;;;;;;7.32;6.63;;;;;;;12.76;82.38;100811.22;4927142;29;20031;-76
2022/09/03 06:14:57;;;;;;;9.45;6.63;;;;;;;13.05;81.39;100804.72;4924871;29;20495;-75
2022/09/03 06:17:23;;;;;;;10.13;6.70;;;;;;;13.30;80.05;100810.59;4926539;29;20497;-76
2022/09/03 06:19:48;;;;;;;6.78;6.22;;;;;;;13.51;79.39;100807.66;4927894;29;20515;-75
2022/09/03 06:22:13;;;;;;;7.43;6.72;;;;;;;13.71;78.81;100806.50;4929856;29;20027;-76
2022/09/03 06:24:39;;;;;;;7.78;6.97;;;;;;;13.87;78.03;100804.50;4926165;29;20475;-76
2022/09/03 06:27:04;;;;;;;9.95;7.38;;;;;;;13.90;77.13;100804.44;4928297;29;20040;-75
2022/09/03 06:29:29;;;;;;;14.15;6.38;;;;;;;14.03;76.70;100806.88;4927758;29;20050;-76
2022/09/03 06:31:55;;;;;;;8.85;7.00;;;;;;;14.21;76.17;100805.69;4928910;29;20039;-76
2022/09/03 06:34:21;;;;;;;9.45;7.07;;;;;;;14.37;75.50;100802.78;4920982;29;20050;-76
2022/09/03 06:36:47;;;;;;;7.43;6.63;;;;;;;14.48;74.36;100804.34;4926397;29;20103;-76
2022/09/03 06:39:12;;;;;;;8.85;6.75;;;;;;;14.51;73.51;100802.53;4926133;29;20035;-76
2022/09/03 06:41:38;;;;;;;13.85;7.20;;;;;;;14.54;72.92;100811.38;4922807;29;20130;-76
2022/09/03 06:44:10;;;;;;;7.07;6.55;;;;;;;14.67;72.71;100815.56;4925875;29;20032;-76
2022/09/03 06:46:37;;;;;;;7.32;6.63;;;;;;;14.74;71.86;100804.81;4931901;29;20040;-75
2022/09/03 06:49:03;;;;;;;8.82;7.10;;;;;;;14.75;71.16;100807.44;4934865;29;20566;-76
2022/09/03 06:51:30;;;;;;;9.23;7.57;;;;;;;14.74;70.77;100813.66;4931625;29;20047;-76
2022/09/03 06:54:02;;;;;;;8.27;7.03;;;;;;;14.72;70.48;100807.47;4928729;29;20095;-76
2022/09/03 06:56:27;;;;;;;7.63;6.83;;;;;;;14.68;70.27;100805.81;4928017;29;20445;-76
2022/09/03 06:58:54;;;;;;;11.13;7.25;;;;;;;14.71;70.53;100805.75;4935075;29;20040;-75
2022/09/03 07:01:31;;;;;;;7.40;6.78;;;;;;;14.79;70.22;100803.81;4927237;29;20107;-75
2022/09/03 07:03:59;;;;;;;8.98;7.30;;;;;;;14.82;70.15;100811.72;4934421;29;20066;-76
2022/09/03 07:06:28;;;;;;;7.32;6.72;;;;;;;14.87;69.73;100803.66;4935991;29;20462;-76
2022/09/03 07:08:56;;;;;;;7.22;6.60;;;;;;;14.92;69.57;100799.13;4926321;29;20495;-76
2022/09/03 07:11:25;;;;;;;7.72;7.10;;;;;;;14.88;68.99;100797.44;4926835;29;20499;-75
2022/09/03 07:13:52;;;;;;;8.77;6.82;;;;;;;14.93;68.54;100800.00;4928187;29;20043;-75
2022/09/03 07:16:27;;;;;;;7.97;7.35;;;;;;;14.90;68.13;100796.50;4926234;29;20095;-76
2022/09/03 07:18:53;;;;;;;9.43;6.95;;;;;;;15.03;68.51;100793.59;4926991;29;20495;-76
2022/09/03 07:21:21;;;;;;;8.07;7.40;;;;;;;15.14;67.66;100794.25;4930857;29;20031;-76
2022/09/03 07:23:47;;;;;;;8.80;6.75;;;;;;;15.20;67.49;100794.16;4928455;29;20091;-76
2022/09/03 07:26:21;;;;;;;7.93;6.75;;;;;;;15.24;66.58;100795.81;4924108;29;20051;-76
2022/09/03 07:28:48;;;;;;;7.07;6.47;;;;;;;15.28;66.61;100797.50;4930028;29;20494;-76
2022/09/03 07:31:18;;;;;;;6.78;6.07;;;;;;;15.32;66.02;100788.53;4923173;29;20047;-76
2022/09/03 07:33:46;;;;;;;9.77;6.78;;;;;;;15.39;66.02;100788.44;4930232;29;20051;-76
2022/09/03 07:36:14;;;;;;;7.28;6.68;;;;;;;15.49;65.22;100787.31;4928940;29;20130;-76
2022/09/03 07:38:40;;;;;;;7.32;6.63;;;;;;;15.58;65.09;100789.75;4932407;29;20119;-76
2022/09/03 07:41:08;;;;;;;7.30;6.70;;;;;;;15.70;64.34;100784.19;4926552;29;20039;-76
2022/09/03 07:43:36;;;;;;;7.45;6.82;;;;;;;15.79;64.23;100780.44;4928120;29;20036;-76
2022/09/03 07:46:02;;;;;;;7.35;6.65;;;;;;;15.89;64.14;100783.75;4926632;29;20036;-76
2022/09/03 07:48:27;;;;;;;6.68;6.07;;;;;;;16.01;63.41;100780.81;4927833;29;20042;-76
2022/09/03 07:50:59;;;;;;;6.90;6.40;;;;;;;16.12;62.66;100781.41;4925227;29;20031;-76
2022/09/03 07:53:25;;;;;;;7.30;6.65;;;;;;;16.17;61.98;100783.97;4925180;29;20175;-76
2022/09/03 07:55:50;;;;;;;7.72;7.03;;;;;;;16.30;62.12;100784.53;4933462;29;20134;-76
2022/09/03 07:58:16;;;;;;;7.28;6.57;;;;;;;16.42;61.83;100781.53;4938574;29;20091;-76
2022/09/03 08:00:42;;;;;;;7.10;6.55;;;;;;;16.51;61.12;100777.78;4927497;29;20090;-76
2022/09/03 08:03:08;;;;;;;8.85;7.05;;;;;;;16.59;60.58;100775.78;4926282;29;20496;-76
2022/09/03 08:05:35;;;;;;;7.40;6.90;;;;;;;16.64;59.71;100776.53;4926286;29;20047;-76
2022/09/03 08:08:05;;;;;;;7.97;7.28;;;;;;;16.71;59.64;100791.41;4927776;29;20035;-75
2022/09/03 08:10:35;;;;;;;8.27;7.57;;;;;;;16.76;59.10;100784.16;4925045;29;20493;-76
2022/09/03 08:13:04;;;;;;;8.25;7.00;;;;;;;16.86;58.88;100784.81;4932139;29;20028;-76
2022/09/03 08:15:29;;;;;;;8.73;7.75;;;;;;;16.98;58.21;100784.47;4925804;29;20139;-76
2022/09/03 08:17:55;;;;;;;8.40;6.70;;;;;;;16.99;57.27;100780.88;4927643;29;20238;-76
2022/09/03 08:20:20;;;;;;;8.25;7.40;;;;;;;17.04;57.36;100775.41;4925795;29;20067;-76
2022/09/03 08:22:45;;;;;;;7.85;7.25;;;;;;;17.19;57.77;100776.78;4927264;29;20394;-76
2022/09/03 08:25:11;;;;;;;7.82;7.13;;;;;;;17.36;56.84;100784.25;4925991;29;20048;-76
2022/09/03 08:27:36;;;;;;;9.52;7.07;;;;;;;17.43;56.06;100780.50;4926144;29;20035;-76
2022/09/03 08:30:03;;;;;;;8.18;7.35;;;;;;;17.49;56.35;100781.16;4926703;29;20047;-76
2022/09/03 08:32:28;;;;;;;8.07;7.38;;;;;;;17.61;55.97;100769.25;4924866;29;20051;-76
2022/09/03 08:34:54;;;;;;;7.97;7.18;;;;;;;17.73;55.34;100767.97;4927775;29;20435;-76
2022/09/03 08:37:19;;;;;;;8.43;7.65;;;;;;;17.85;54.81;100764.09;4928014;29;20042;-76
2022/09/03 08:39:44;;;;;;;7.55;6.88;;;;;;;17.94;54.49;100769.09;4926599;29;20730;-76
2022/09/03 08:42:40;;;;;;;7.93;7.38;;;;;;;18.01;53.40;100765.31;4925634;29;20418;-76
2022/09/03 08:45:11;;;;;;;8.55;7.43;;;;;;;18.09;54.30;100765.06;4942655;29;20108;-76
2022/09/03 08:47:43;;;;;;;8.68;7.97;;;;;;;18.25;53.18;100768.09;4927415;29;20040;-76
2022/09/03 08:50:28;;;;;;;8.25;7.55;;;;;;;18.38;53.07;100761.41;4928740;29;20028;-75
2022/09/03 08:53:37;;;;;;;8.82;8.13;;;;;;;18.59;52.13;100754.41;4924574;29;20095;-76
2022/09/03 08:56:07;;;;;;;10.90;7.38;;;;;;;18.73;52.38;100751.25;4927334;29;20059;-76
2022/09/03 08:58:37;;;;;;;8.27;7.57;;;;;;;18.88;51.79;100755.19;4924648;29;20462;-75
2022/09/03 09:01:17;;;;;;;8.00;7.30;;;;;;;18.98;51.43;100756.59;4925444;29;20454;-75
2022/09/03 09:04:04;;;;;;;7.85;7.18;;;;;;;19.07;50.20;100750.88;4924805;29;20099;-76
2022/09/03 09:06:52;;;;;;;8.75;8.05;;;;;;;19.18;50.92;100742.50;4924293;29;20639;-76
2022/09/03 09:09:30;;;;;;;7.97;7.30;;;;;;;19.34;50.32;100742.75;4938197;28;20110;-76
2022/09/03 09:12:17;;;;;;;8.10;7.22;;;;;;;19.45;50.50;100735.16;4924671;29;20044;-76
2022/09/03 09:15:04;;;;;;;7.85;7.15;;;;;;;19.55;49.12;100741.91;4925815;29;20851;-76
2022/09/03 09:17:50;;;;;;;8.18;7.35;;;;;;;19.64;49.42;100740.66;4925307;29;20488;-76
2022/09/03 09:20:22;;;;;;;8.40;7.57;;;;;;;19.70;49.30;100735.06;4925029;29;20059;-76
2022/09/03 09:22:56;;;;;;;8.52;7.72;;;;;;;19.80;49.22;100741.81;4927171;29;20046;-76
2022/09/03 09:25:25;;;;;;;12.45;8.43;;;;;;;19.91;49.17;100736.00;4929692;29;20044;-76
2022/09/03 09:27:57;;;;;;;8.07;7.45;;;;;;;19.96;47.38;100731.31;4926384;29;20562;-76
2022/09/03 09:30:22;;;;;;;8.85;7.55;;;;;;;20.07;47.90;100723.72;4933802;29;20035;-76
2022/09/03 09:32:47;;;;;;;8.25;7.57;;;;;;;20.23;47.60;100729.28;4928404;29;20383;-77
2022/09/03 09:35:16;;;;;;;8.85;7.88;;;;;;;20.31;46.02;100728.97;4927285;29;20036;-76
2022/09/03 09:37:52;;;;;;;13.30;7.97;;;;;;;20.39;45.68;100726.81;4926861;29;20146;-76
2022/09/03 09:40:32;;;;;;;8.20;7.43;;;;;;;20.45;46.34;100726.53;4922787;29;20046;-76
2022/09/03 09:43:19;;;;;;;9.10;8.30;;;;;;;20.53;45.05;100736.94;4925038;29;20495;-76
2022/09/03 09:45:54;;;;;;;9.85;7.25;;;;;;;20.62;44.94;100717.78;4929575;29;20050;-76
2022/09/03 09:48:30;;;;;;;8.45;7.85;;;;;;;20.75;45.89;100723.44;4924434;29;20044;-76
2022/09/03 09:51:27;;;;;;;7.95;7.25;;;;;;;20.86;44.59;100721.16;4928289;29;20160;-78
2022/09/03 09:54:12;;;;;;;8.13;7.43;;;;;;;20.92;43.54;100718.19;4933878;29;20065;-78
2022/09/03 09:56:37;;;;;;;10.63;8.00;;;;;;;20.97;43.61;100704.56;4929579;29;20036;-78
2022/09/03 09:59:07;;;;;;;9.40;8.60;;;;;;;21.02;43.09;100711.47;4929961;29;20051;-77
2022/09/03 10:01:35;;;;;;;9.88;8.88;;;;;;;21.18;43.30;100713.44;4926138;29;20514;-77
2022/09/03 10:04:23;;;;;;;9.77;7.85;;;;;;;21.08;42.27;100709.44;4928437;29;20032;-76
2022/09/03 10:07:00;;;;;;;9.73;8.80;;;;;;;21.26;42.71;100697.81;4940465;29;20040;-76
2022/09/03 10:09:27;;;;;;;9.35;8.75;;;;;;;21.41;43.19;100699.81;4939792;29;20103;-77
2022/09/03 10:12:29;;;;;;;8.50;7.80;;;;;;;21.55;42.41;100685.69;4926134;29;20054;-77
2022/09/03 10:15:21;;;;;;;11.27;10.25;;;;;;;21.69;42.36;100682.31;4928917;29;20054;-77
2022/09/03 10:17:59;;;;;;;9.65;8.68;;;;;;;21.77;40.16;100685.53;4933221;29;20118;-78
2022/09/03 10:20:53;;;;;;;8.73;8.00;;;;;;;21.77;40.09;100692.69;4935896;29;20044;-78
2022/09/03 10:23:27;;;;;;;10.27;9.48;;;;;;;21.89;40.60;100679.50;4936164;29;20505;-78
2022/09/03 10:26:16;;;;;;;9.52;8.68;;;;;;;21.88;40.67;100680.47;4934009;29;20098;-77
2022/09/03 10:28:44;;;;;;;10.07;9.38;;;;;;;21.87;41.30;100669.78;4931947;29;20564;-78
2022/09/03 10:31:35;;;;;;;11.38;8.88;;;;;;;21.95;40.40;100666.72;4933236;29;20034;-77
2022/09/03 10:34:03;;;;;;;12.27;11.47;;;;;;;22.03;40.38;100662.69;4940761;29;20032;-77
2022/09/03 10:36:40;;;;;;;8.68;7.97;;;;;;;22.17;40.46;100666.47;4928076;29;20346;-78
2022/09/03 10:39:13;;;;;;;9.75;8.85;;;;;;;22.27;39.43;100655.19;4929054;29;20048;-77
2022/09/03 10:41:54;;;;;;;8.90;8.13;;;;;;;22.36;40.41;100661.03;4928678;29;20040;-78
2022/09/03 10:44:59;;;;;;;8.50;7.90;;;;;;;22.47;38.76;100654.13;4926688;29;20388;-78
2022/09/03 10:47:45;;;;;;;9.52;8.35;;;;;;;22.56;38.92;100647.41;4925675;29;20187;-77
2022/09/03 10:50:19;;;;;;;9.73;8.77;;;;;;;22.56;38.94;100650.09;4925100;29;20123;-76
2022/09/03 10:53:09;;;;;;;9.32;7.88;;;;;;;22.70;38.67;100636.72;4927003;29;20039;-75
2022/09/03 10:55:59;;;;;;;11.57;10.27;;;;;;;22.68;37.60;100633.25;4926797;29;20051;-77
2022/09/03 10:58:49;;;;;;;9.32;8.25;;;;;;;22.76;38.39;100641.75;4926647;29;20044;-76
2022/09/03 11:01:36;;;;;;;8.80;8.05;;;;;;;22.81;38.19;100640.66;4923632;29;20042;-76
2022/09/03 11:04:21;;;;;;;9.88;9.07;;;;;;;23.01;38.36;100643.16;4923066;29;20443;-76
2022/09/03 11:07:05;;;;;;;10.77;9.70;;;;;;;23.21;37.47;100638.44;4924233;29;20036;-77
2022/09/03 11:09:48;;;;;;;10.70;9.93;;;;;;;23.49;36.75;100635.03;4925881;29;20203;-77
2022/09/03 11:12:31;;;;;;;10.07;9.35;;;;;;;23.75;35.88;100633.53;4924822;29;20055;-77
2022/09/03 11:15:23;;;;;;;9.48;8.75;;;;;;;24.00;35.41;100631.09;4938846;29;20050;-77
2022/09/03 11:17:55;;;;;;;10.00;9.10;;;;;;;23.97;36.05;100631.28;4924519;29;20048;-77
2022/09/03 11:20:23;;;;;;;10.80;9.50;;;;;;;24.16;36.55;100631.03;4925704;29;20036;-77
2022/09/03 11:22:52;;;;;;;10.85;10.02;;;;;;;24.18;35.19;100623.72;4926839;29;20035;-77
2022/09/03 11:25:22;;;;;;;11.75;10.57;;;;;;;24.33;35.49;100623.72;4923993;29;20044;-77
2022/09/03 11:27:55;;;;;;;9.95;9.20;;;;;;;24.67;34.68;100611.72;4925876;29;20027;-78
2022/09/03 11:30:48;;;;;;;11.05;10.25;;;;;;;25.02;34.92;100619.38;4929363;29;20578;-78
2022/09/03 11:33:18;;;;;;;11.38;10.63;;;;;;;25.62;34.39;100621.69;4929963;29;20051;-78
2022/09/03 11:35:44;;;;;;;11.25;10.40;;;;;;;26.02;33.34;100609.06;4932471;29;20051;-78
2022/09/03 11:38:15;;;;;;;10.32;9.52;;;;;;;25.68;31.66;100615.88;4946768;28;20040;-78
2022/09/03 11:40:58;;;;;;;11.63;10.93;;;;;;;25.59;32.49;100611.09;4942729;29;20040;-78
2022/09/03 11:43:23;;;;;;;8.93;8.23;;;;;;;25.64;32.97;100614.34;4928958;29;20036;-78
2022/09/03 11:46:25;;;;;;;14.23;13.30;;;;;;;25.65;32.05;100612.50;4946215;28;20071;-78
2022/09/03 11:48:54;;;;;;;12.20;11.50;;;;;;;25.51;32.92;100616.16;4928549;29;20063;-78
2022/09/03 11:51:36;;;;;;;13.13;12.32;;;;;;;26.14;32.52;100611.88;4930296;29;20155;-78
2022/09/03 11:54:19;;;;;;;9.95;9.05;;;;;;;26.54;32.34;100604.56;4928165;29;20046;-78